Terminal Aerodrome Forecast
Issued by NWS

Home | Current Version | Previous Version | Text Only | Print | Product List | Glossary On
Versions: 1 2 3 4 5 6 7 8 9 10 11 12 13 14 15 16 17 18 19 20 21 22
404
FTUS43 KILX 140547
TAFCMI
TAF
KCMI 140547Z 1406/1506 33015G25KT P6SM SCT030
     FM140700 33010G18KT P6SM BKN025
     FM141100 35008KT P6SM BKN200
     FM150000 29003KT P6SM OVC250=

USA.gov is the U.S. government's official web portal to all federal, state and local government web resources and services.